createdAt,value
2022-10-18T00:00:02.343Z,79.83
2022-10-18T00:02:31.612Z,79.91
2022-10-18T00:04:58.355Z,79.72
2022-10-18T00:07:25.181Z,79.19
2022-10-18T00:09:52.345Z,78.91
2022-10-18T00:12:19.066Z,78.94
2022-10-18T00:14:50.077Z,78.54
2022-10-18T00:17:16.949Z,79.09
2022-10-18T00:19:44.317Z,78.86
2022-10-18T00:22:11.056Z,78.72
2022-10-18T00:24:37.901Z,79.34
2022-10-18T00:27:04.589Z,79.58
2022-10-18T00:29:31.466Z,79.91
2022-10-18T00:31:58.159Z,79.67
2022-10-18T00:34:25.045Z,79.30
2022-10-18T00:36:51.777Z,79.38
2022-10-18T00:39:20.876Z,79.83
2022-10-18T00:41:48.448Z,80.43
2022-10-18T00:44:15.130Z,80.15
2022-10-18T00:46:44.876Z,80.23
2022-10-18T00:49:20.614Z,79.92
2022-10-18T00:51:50.223Z,80.11
2022-10-18T00:54:19.405Z,79.61
2022-10-18T00:56:46.515Z,79.64
2022-10-18T00:59:16.130Z,79.74
2022-10-18T01:01:43.844Z,79.48
2022-10-18T01:04:12.005Z,79.12
2022-10-18T01:06:50.681Z,79.17
2022-10-18T01:09:29.228Z,79.34
2022-10-18T01:12:09.865Z,79.82
2022-10-18T01:14:48.696Z,80.73
2022-10-18T01:17:23.162Z,81.02
2022-10-18T01:20:17.575Z,80.80
2022-10-18T01:22:50.063Z,79.96
2022-10-18T01:25:30.732Z,79.67
2022-10-18T01:28:02.486Z,79.85
2022-10-18T01:30:34.643Z,80.12
2022-10-18T01:33:09.512Z,79.95
2022-10-18T01:35:42.975Z,80.34
2022-10-18T01:38:14.206Z,79.85
2022-10-18T01:40:43.997Z,79.98
2022-10-18T01:43:12.777Z,81.02
2022-10-18T01:45:40.505Z,81.69
2022-10-18T01:48:09.102Z,81.73
2022-10-18T01:50:35.863Z,81.32
2022-10-18T01:53:03.284Z,80.68
2022-10-18T01:55:47.579Z,80.20
2022-10-18T01:58:22.635Z,81.30
2022-10-18T02:00:59.131Z,82.41
2022-10-18T02:03:29.396Z,83.02
2022-10-18T02:06:07.933Z,83.30
2022-10-18T02:08:42.882Z,83.48
2022-10-18T02:11:12.987Z,83.82
2022-10-18T02:13:46.052Z,83.77
2022-10-18T02:16:19.567Z,84.32
2022-10-18T02:18:52.090Z,84.35
2022-10-18T02:21:21.550Z,84.27
2022-10-18T02:23:49.193Z,83.91
2022-10-18T02:26:16.216Z,83.64
2022-10-18T02:28:43.829Z,83.22
2022-10-18T02:31:10.536Z,82.80
2022-10-18T02:33:49.769Z,81.93
2022-10-18T02:36:24.325Z,81.35
2022-10-18T02:38:56.257Z,81.08
2022-10-18T02:41:25.757Z,80.90
2022-10-18T02:43:53.027Z,80.85
2022-10-18T02:46:21.201Z,80.61
2022-10-18T02:48:48.468Z,80.78
2022-10-18T02:51:15.322Z,80.33
2022-10-18T02:53:42.560Z,80.53
2022-10-18T02:56:10.056Z,80.29
2022-10-18T02:58:36.704Z,80.82
2022-10-18T03:01:03.889Z,81.57
2022-10-18T03:03:30.577Z,82.45
2022-10-18T03:05:57.484Z,82.80
2022-10-18T03:08:24.226Z,82.88
2022-10-18T03:10:50.917Z,82.69
2022-10-18T03:13:18.088Z,82.45
2022-10-18T03:15:45.015Z,83.06
2022-10-18T03:18:11.871Z,83.65
2022-10-18T03:20:38.559Z,83.80
2022-10-18T03:23:05.689Z,84.12
2022-10-18T03:25:32.829Z,84.43
2022-10-18T03:27:59.493Z,84.54
2022-10-18T03:30:26.171Z,84.77
2022-10-18T03:32:54.310Z,84.81
2022-10-18T03:35:21.176Z,85.41
2022-10-18T03:37:48.424Z,85.55
2022-10-18T03:40:15.192Z,85.67
2022-10-18T03:42:41.887Z,85.65
2022-10-18T03:45:09.048Z,85.25
2022-10-18T03:47:36.648Z,85.14
2022-10-18T03:50:03.876Z,84.96
2022-10-18T03:52:30.914Z,85.34
2022-10-18T03:54:57.794Z,85.73
2022-10-18T03:57:24.502Z,85.89
2022-10-18T03:59:51.262Z,85.96
2022-10-18T04:02:18.181Z,85.67
2022-10-18T04:04:45.140Z,84.47
2022-10-18T04:07:12.019Z,84.66
2022-10-18T04:09:38.852Z,84.86
2022-10-18T04:12:05.734Z,85.63
2022-10-18T04:14:32.509Z,86.18
2022-10-18T04:16:59.380Z,85.95
2022-10-18T04:19:27.769Z,85.35
2022-10-18T04:21:54.538Z,85.20
2022-10-18T04:24:21.459Z,84.96
2022-10-18T04:26:48.150Z,84.83
2022-10-18T04:29:16.115Z,84.81
2022-10-18T04:31:43.382Z,85.21
2022-10-18T04:34:10.720Z,85.51
2022-10-18T04:36:37.637Z,85.29
2022-10-18T04:39:05.532Z,84.46
2022-10-18T04:41:32.345Z,84.17
2022-10-18T04:43:59.071Z,84.27
2022-10-18T04:46:25.900Z,84.73
2022-10-18T04:48:52.688Z,85.19
2022-10-18T04:51:19.516Z,85.30
2022-10-18T04:53:46.265Z,85.24
2022-10-18T04:56:13.044Z,85.18
2022-10-18T04:58:39.891Z,84.98
2022-10-18T05:01:07.795Z,84.88
2022-10-18T05:03:34.899Z,85.03
2022-10-18T05:06:03.069Z,84.76
2022-10-18T05:08:31.298Z,84.56
2022-10-18T05:10:58.079Z,84.68
2022-10-18T05:13:25.601Z,84.86
2022-10-18T05:15:52.445Z,84.03
2022-10-18T05:18:19.270Z,83.21
2022-10-18T05:20:47.119Z,83.50
2022-10-18T05:23:13.872Z,83.42
2022-10-18T05:25:42.570Z,84.54
2022-10-18T05:28:34.536Z,84.71
2022-10-18T05:31:02.237Z,84.65
2022-10-18T05:33:29.815Z,84.65
2022-10-18T05:35:56.579Z,84.26
2022-10-18T05:38:23.726Z,84.45
2022-10-18T05:40:50.725Z,84.53
2022-10-18T05:43:18.693Z,84.69
2022-10-18T05:45:50.016Z,84.99
2022-10-18T05:48:17.219Z,85.21
2022-10-18T05:50:45.329Z,85.28
2022-10-18T05:53:18.573Z,85.06
2022-10-18T05:56:01.723Z,84.88
2022-10-18T05:58:28.595Z,84.78
2022-10-18T06:00:59.290Z,85.07
2022-10-18T06:03:27.664Z,85.16
2022-10-18T06:06:00.322Z,85.30
2022-10-18T06:08:27.316Z,85.64
2022-10-18T06:10:55.010Z,84.68
2022-10-18T06:13:22.178Z,83.71
2022-10-18T06:15:49.166Z,84.12
2022-10-18T06:18:16.653Z,82.89
2022-10-18T06:20:43.368Z,82.07
2022-10-18T06:23:10.093Z,82.14
2022-10-18T06:25:36.908Z,81.57
2022-10-18T06:28:07.946Z,80.38
2022-10-18T06:30:37.206Z,78.18
2022-10-18T06:33:04.016Z,75.98
2022-10-18T06:35:30.862Z,75.67
2022-10-18T06:37:57.856Z,75.79
2022-10-18T06:40:24.837Z,76.59
2022-10-18T06:43:00.663Z,76.52
2022-10-18T06:45:37.407Z,75.66
2022-10-18T06:48:04.359Z,74.46
2022-10-18T06:50:31.587Z,72.22
2022-10-18T06:52:58.938Z,69.92
2022-10-18T06:55:25.668Z,69.52
2022-10-18T06:57:53.543Z,69.55
2022-10-18T07:00:20.320Z,69.77
2022-10-18T07:02:47.063Z,69.26
2022-10-18T07:05:14.319Z,68.37
2022-10-18T07:07:41.056Z,67.20
2022-10-18T07:10:11.197Z,66.66
2022-10-18T07:12:39.724Z,65.97
2022-10-18T07:15:09.361Z,65.25
2022-10-18T07:17:37.038Z,62.67
2022-10-18T07:20:04.488Z,59.68
2022-10-18T07:22:31.239Z,59.98
2022-10-18T07:24:57.955Z,59.23
2022-10-18T07:27:24.691Z,59.82
2022-10-18T07:29:51.574Z,57.68
2022-10-18T07:32:18.253Z,56.16
2022-10-18T07:34:45.103Z,54.47
2022-10-18T07:37:11.888Z,53.21
2022-10-18T07:39:38.856Z,51.98
2022-10-18T07:42:05.593Z,50.51
2022-10-18T07:44:32.292Z,50.19
2022-10-18T07:46:59.232Z,50.17
2022-10-18T07:49:26.124Z,49.89
2022-10-18T07:51:52.824Z,49.91
2022-10-18T07:54:20.249Z,48.93
2022-10-18T07:56:47.334Z,47.59
2022-10-18T07:59:14.355Z,46.21
2022-10-18T08:01:41.413Z,43.05
2022-10-18T08:04:11.600Z,40.93
2022-10-18T08:06:41.065Z,40.56
2022-10-18T08:09:11.283Z,40.26
2022-10-18T08:11:38.823Z,37.85
2022-10-18T08:14:05.819Z,37.79
2022-10-18T08:18:59.419Z,36.88
2022-10-18T08:21:26.677Z,36.42
2022-10-18T08:23:54.163Z,37.49
2022-10-18T08:26:23.219Z,36.00
2022-10-18T08:28:58.277Z,35.55
2022-10-18T08:31:36.576Z,35.61
2022-10-18T08:34:03.430Z,35.54
2022-10-18T08:36:30.169Z,34.45
2022-10-18T08:38:56.988Z,34.36
2022-10-18T08:41:46.464Z,34.11
2022-10-18T08:44:18.722Z,35.17
2022-10-18T08:46:48.416Z,33.59
2022-10-18T08:49:34.366Z,33.95
2022-10-18T08:52:02.689Z,35.06
2022-10-18T08:54:44.489Z,36.06
2022-10-18T08:57:16.040Z,36.19
2022-10-18T08:59:44.856Z,36.03
2022-10-18T09:02:43.058Z,35.64
2022-10-18T09:05:25.378Z,36.12
2022-10-18T09:08:26.254Z,36.51
2022-10-18T09:11:10.173Z,36.78
2022-10-18T09:13:49.050Z,37.39
2022-10-18T09:16:20.626Z,38.55
2022-10-18T09:18:52.087Z,38.50
2022-10-18T09:21:35.287Z,38.92
2022-10-18T09:24:14.258Z,38.82
2022-10-18T09:26:47.820Z,39.52
2022-10-18T09:29:40.292Z,38.62
2022-10-18T09:32:36.021Z,39.14
2022-10-18T09:35:14.954Z,38.95
2022-10-18T09:37:44.108Z,39.50
2022-10-18T09:40:24.975Z,38.42
2022-10-18T09:43:12.498Z,37.95
2022-10-18T09:45:43.386Z,38.26
2022-10-18T09:48:17.300Z,37.71
2022-10-18T09:50:57.890Z,38.15
2022-10-18T09:53:38.598Z,37.95
2022-10-18T09:56:09.848Z,38.42
2022-10-18T09:58:48.012Z,37.59
2022-10-18T10:01:22.071Z,38.58
2022-10-18T10:03:48.955Z,37.92
2022-10-18T10:06:23.721Z,38.49
2022-10-18T10:08:59.401Z,38.93
2022-10-18T10:11:29.937Z,38.92
2022-10-18T10:14:08.305Z,38.52
2022-10-18T10:16:44.937Z,38.56
2022-10-18T10:19:24.541Z,39.10
2022-10-18T10:21:55.172Z,37.73
2022-10-18T10:24:31.171Z,37.86
2022-10-18T10:27:02.005Z,38.63
2022-10-18T10:29:45.535Z,38.36
2022-10-18T10:32:16.102Z,37.06
2022-10-18T10:34:44.803Z,36.90
2022-10-18T10:37:27.835Z,37.49
2022-10-18T10:40:18.476Z,37.43
2022-10-18T10:43:19.640Z,38.85
2022-10-18T10:46:08.905Z,37.06
2022-10-18T10:49:08.447Z,37.49
2022-10-18T10:51:41.393Z,36.22
2022-10-18T10:54:23.526Z,35.72
2022-10-18T10:57:08.626Z,35.35
2022-10-18T10:59:53.526Z,35.74
2022-10-18T11:02:36.804Z,35.75
2022-10-18T11:05:23.495Z,36.32
2022-10-18T11:07:55.266Z,35.63
2022-10-18T11:10:27.366Z,35.94
2022-10-18T11:13:04.320Z,35.68
2022-10-18T11:15:36.662Z,34.92
2022-10-18T11:18:19.560Z,34.57
2022-10-18T11:20:59.612Z,34.70
2022-10-18T11:23:32.131Z,35.08
2022-10-18T11:26:09.592Z,35.03
2022-10-18T11:28:36.358Z,35.73
2022-10-18T11:31:21.413Z,35.25
2022-10-18T11:34:18.942Z,35.39
2022-10-18T11:37:27.673Z,35.26
2022-10-18T11:40:26.698Z,35.34
2022-10-18T11:42:59.340Z,34.28
2022-10-18T11:45:47.381Z,34.42
2022-10-18T11:48:40.459Z,34.58
2022-10-18T11:51:34.139Z,34.92
2022-10-18T11:54:17.279Z,34.00
2022-10-18T11:57:07.756Z,34.44
2022-10-18T11:59:46.096Z,34.09
2022-10-18T12:02:33.116Z,33.43
2022-10-18T12:05:23.546Z,33.96
2022-10-18T12:08:03.426Z,33.72
2022-10-18T12:10:45.705Z,33.17
2022-10-18T12:13:40.886Z,32.55
2022-10-18T12:16:09.618Z,31.93
2022-10-18T12:18:45.666Z,31.32
2022-10-18T12:21:13.182Z,30.46
2022-10-18T12:23:59.549Z,29.70
2022-10-18T12:26:28.598Z,29.27
2022-10-18T12:28:55.633Z,29.25
2022-10-18T12:31:34.019Z,29.72
2022-10-18T12:34:09.701Z,29.32
2022-10-18T12:39:43.669Z,28.32
2022-10-18T12:42:21.802Z,28.32
2022-10-18T12:44:49.056Z,27.82
2022-10-18T12:47:24.313Z,27.98
2022-10-18T12:50:02.985Z,28.54
2022-10-18T12:52:34.512Z,27.76
2022-10-18T12:58:14.837Z,27.85
2022-10-18T13:00:42.739Z,28.62
2022-10-18T13:03:13.090Z,28.74
2022-10-18T13:05:56.279Z,28.71
2022-10-18T13:08:32.937Z,28.81
2022-10-18T13:11:11.310Z,29.06
2022-10-18T13:14:18.020Z,29.03
2022-10-18T13:17:23.848Z,29.13
2022-10-18T13:20:25.098Z,29.16
2022-10-18T13:23:05.206Z,29.62
2022-10-18T13:25:51.304Z,29.19
2022-10-18T13:28:37.802Z,29.28
2022-10-18T13:31:23.254Z,29.21
2022-10-18T13:33:51.136Z,29.29
2022-10-18T13:36:25.359Z,30.17
2022-10-18T13:39:08.511Z,29.87
2022-10-18T13:41:56.543Z,29.55
2022-10-18T13:44:55.517Z,29.83
2022-10-18T13:47:50.164Z,29.75
2022-10-18T13:50:38.212Z,30.46
2022-10-18T13:53:23.007Z,30.12
2022-10-18T13:56:04.820Z,29.95
2022-10-18T13:59:13.500Z,30.12
2022-10-18T14:02:30.704Z,30.71
2022-10-18T14:05:24.949Z,31.10
2022-10-18T14:08:09.597Z,31.17
2022-10-18T14:11:01.270Z,32.17
2022-10-18T14:13:53.771Z,33.47
2022-10-18T14:16:46.429Z,34.13
2022-10-18T14:19:29.485Z,34.75
2022-10-18T14:22:13.168Z,35.10
2022-10-18T14:30:11.995Z,35.50
2022-10-18T14:32:51.001Z,35.40
2022-10-18T14:35:37.119Z,34.95
2022-10-18T14:38:06.783Z,35.09
2022-10-18T14:40:36.137Z,35.19
2022-10-18T14:43:10.773Z,34.82
2022-10-18T14:45:38.343Z,34.76
2022-10-18T14:48:08.064Z,35.22
2022-10-18T14:50:35.001Z,35.62
2022-10-18T14:53:07.532Z,36.14
2022-10-18T14:55:35.680Z,37.50
2022-10-18T14:58:03.132Z,38.18
2022-10-18T15:00:36.426Z,38.82
2022-10-18T15:03:07.451Z,40.09
2022-10-18T15:05:35.415Z,40.52
2022-10-18T15:08:02.537Z,41.42
2022-10-18T15:10:32.917Z,42.04
2022-10-18T15:13:11.194Z,42.36
2022-10-18T15:15:39.396Z,43.22
2022-10-18T15:18:09.387Z,43.65
2022-10-18T15:20:42.658Z,44.77
2022-10-18T15:23:28.146Z,45.28
2022-10-18T15:26:03.701Z,45.83
2022-10-18T15:28:36.051Z,46.24
2022-10-18T15:31:03.188Z,46.75
2022-10-18T15:33:34.835Z,47.20
2022-10-18T15:36:11.395Z,47.39
2022-10-18T15:38:39.084Z,47.84
2022-10-18T15:41:36.857Z,48.04
2022-10-18T15:44:13.185Z,48.05
2022-10-18T15:46:41.150Z,48.34
2022-10-18T15:49:24.443Z,48.58
2022-10-18T15:52:27.647Z,48.95
2022-10-18T15:54:56.022Z,49.43
2022-10-18T15:57:26.667Z,49.40
2022-10-18T16:00:04.092Z,49.73
2022-10-18T16:02:39.079Z,50.15
2022-10-18T16:05:06.065Z,50.32
2022-10-18T16:07:32.973Z,50.54
2022-10-18T16:10:00.031Z,50.71
2022-10-18T16:12:26.865Z,51.09
2022-10-18T16:14:53.592Z,51.45
2022-10-18T16:17:22.686Z,51.35
2022-10-18T16:19:50.496Z,51.47
2022-10-18T16:22:20.498Z,51.53
2022-10-18T16:24:48.967Z,51.58
2022-10-18T16:27:17.119Z,51.96
2022-10-18T16:29:44.104Z,51.97
2022-10-18T16:32:11.729Z,51.89
2022-10-18T16:34:41.696Z,52.13
2022-10-18T16:37:12.246Z,52.52
2022-10-18T16:39:39.209Z,52.76
2022-10-18T16:42:06.841Z,53.18
2022-10-18T16:44:34.151Z,53.37
2022-10-18T16:47:01.302Z,53.45
2022-10-18T16:49:28.552Z,53.96
2022-10-18T16:51:55.954Z,54.22
2022-10-18T16:54:23.790Z,54.38
2022-10-18T16:56:51.365Z,54.62
2022-10-18T16:59:24.809Z,54.78
2022-10-18T17:01:54.061Z,54.49
2022-10-18T17:04:22.430Z,54.58
2022-10-18T17:06:49.518Z,54.51
2022-10-18T17:09:18.002Z,54.64
2022-10-18T17:11:45.732Z,54.52
2022-10-18T17:14:12.973Z,54.51
2022-10-18T17:16:43.578Z,54.40
2022-10-18T17:19:13.566Z,54.67
2022-10-18T17:21:40.641Z,54.67
2022-10-18T17:24:07.671Z,54.82
2022-10-18T17:26:40.933Z,54.91
2022-10-18T17:29:12.629Z,54.67
2022-10-18T17:31:41.373Z,54.51
2022-10-18T17:34:09.500Z,54.51
2022-10-18T17:36:38.370Z,54.47
2022-10-18T17:39:06.053Z,54.54
2022-10-18T17:41:33.883Z,54.66
2022-10-18T17:44:05.944Z,54.33
2022-10-18T17:46:34.358Z,54.59
2022-10-18T17:49:03.142Z,54.25
2022-10-18T17:51:30.025Z,54.35
2022-10-18T17:53:57.547Z,54.16
2022-10-18T17:56:27.689Z,54.04
2022-10-18T17:58:56.526Z,54.07
2022-10-18T18:01:23.973Z,54.01
2022-10-18T18:03:57.077Z,54.38
2022-10-18T18:06:31.413Z,54.54
2022-10-18T18:09:02.213Z,54.39
2022-10-18T18:11:34.815Z,54.86
2022-10-18T18:14:03.064Z,55.26
2022-10-18T18:16:36.101Z,55.39
2022-10-18T18:22:32.862Z,56.16
2022-10-18T18:25:04.611Z,56.24
2022-10-18T18:27:32.627Z,56.39
2022-10-18T18:29:59.506Z,56.73
2022-10-18T18:32:27.050Z,56.85
2022-10-18T18:34:54.261Z,57.38
2022-10-18T18:37:24.536Z,57.65
2022-10-18T18:40:07.813Z,57.92
2022-10-18T18:42:43.805Z,58.38
2022-10-18T18:45:14.663Z,58.68
2022-10-18T18:48:02.157Z,58.90
2022-10-18T18:50:33.190Z,59.17
2022-10-18T18:53:00.163Z,59.72
2022-10-18T18:55:27.499Z,59.94
2022-10-18T18:57:56.476Z,60.24
2022-10-18T19:00:25.913Z,60.56
2022-10-18T19:02:54.343Z,60.92
2022-10-18T19:05:33.305Z,61.24
2022-10-18T19:08:02.213Z,61.41
2022-10-18T19:10:32.036Z,61.90
2022-10-18T19:12:59.996Z,61.92
2022-10-18T19:15:28.369Z,62.22
2022-10-18T19:17:57.113Z,62.55
2022-10-18T19:20:26.020Z,62.95
2022-10-18T19:22:54.046Z,63.19
2022-10-18T19:25:27.163Z,63.78
2022-10-18T19:27:56.092Z,64.31
2022-10-18T19:30:26.234Z,65.45
2022-10-18T19:33:01.248Z,66.34
2022-10-18T19:35:31.085Z,67.00
2022-10-18T19:38:00.774Z,68.35
2022-10-18T19:40:28.493Z,70.44
2022-10-18T19:42:58.054Z,71.96
2022-10-18T19:45:26.004Z,72.75
2022-10-18T19:47:53.305Z,73.41
2022-10-18T19:50:20.204Z,74.08
2022-10-18T19:52:48.000Z,74.85
2022-10-18T19:55:14.857Z,75.40
2022-10-18T19:57:42.132Z,75.72
2022-10-18T20:00:10.832Z,76.00
2022-10-18T20:02:41.308Z,76.37
2022-10-18T20:05:08.696Z,76.66
2022-10-18T20:07:36.930Z,76.52
2022-10-18T20:10:04.426Z,76.56
2022-10-18T20:12:31.515Z,76.76
2022-10-18T20:14:58.692Z,76.73
2022-10-18T20:17:25.780Z,77.05
2022-10-18T20:19:52.570Z,77.41
2022-10-18T20:22:19.617Z,77.61
2022-10-18T20:24:47.411Z,77.91
2022-10-18T20:27:14.168Z,78.29
2022-10-18T20:29:41.133Z,78.85
2022-10-18T20:32:08.886Z,79.19
2022-10-18T20:34:35.611Z,79.61
2022-10-18T20:37:02.382Z,79.84
2022-10-18T20:39:29.096Z,80.17
2022-10-18T20:41:55.916Z,80.40
2022-10-18T20:44:22.783Z,80.59
2022-10-18T20:46:49.669Z,80.95
2022-10-18T20:49:17.053Z,81.29
2022-10-18T20:51:44.332Z,81.43
2022-10-18T20:54:11.938Z,81.50
2022-10-18T20:56:39.250Z,81.70
2022-10-18T20:59:09.922Z,81.58
2022-10-18T21:01:39.040Z,81.74
2022-10-18T21:04:08.532Z,81.81
2022-10-18T21:06:41.150Z,81.63
2022-10-18T21:09:13.001Z,81.96
2022-10-18T21:11:42.063Z,82.08
2022-10-18T21:14:13.261Z,82.11
2022-10-18T21:16:41.219Z,81.64
2022-10-18T21:19:13.098Z,81.46
2022-10-18T21:21:46.094Z,81.34
2022-10-18T21:24:13.825Z,81.42
2022-10-18T21:26:41.622Z,81.30
2022-10-18T21:29:08.817Z,81.19
2022-10-18T21:31:39.783Z,81.14
2022-10-18T21:34:13.014Z,81.29
2022-10-18T21:36:41.022Z,81.30
2022-10-18T21:39:12.027Z,81.32
2022-10-18T21:41:39.071Z,81.71
2022-10-18T21:44:08.359Z,81.62
2022-10-18T21:46:39.497Z,81.54
2022-10-18T21:49:08.562Z,81.42
2022-10-18T21:51:36.462Z,81.59
2022-10-18T21:54:03.576Z,81.57
2022-10-18T21:56:32.711Z,81.72
2022-10-18T21:59:00.284Z,81.93
2022-10-18T22:01:32.354Z,81.80
2022-10-18T22:04:01.089Z,81.96
2022-10-18T22:06:32.178Z,81.86
2022-10-18T22:09:03.452Z,81.74
2022-10-18T22:11:39.893Z,81.80
2022-10-18T22:14:06.736Z,81.68
2022-10-18T22:16:34.182Z,81.89
2022-10-18T22:19:03.294Z,82.00
2022-10-18T22:21:30.291Z,82.46
2022-10-18T22:23:58.385Z,82.65
2022-10-18T22:26:29.174Z,82.94
2022-10-18T22:28:59.796Z,82.65
2022-10-18T22:31:30.058Z,82.49
2022-10-18T22:33:59.859Z,82.32
2022-10-18T22:36:27.466Z,82.61
2022-10-18T22:38:54.545Z,82.50
2022-10-18T22:41:21.388Z,82.68
2022-10-18T22:43:50.433Z,82.52
2022-10-18T22:46:17.800Z,82.37
2022-10-18T22:48:45.017Z,82.29
2022-10-18T22:51:13.016Z,82.33
2022-10-18T22:53:40.767Z,82.51
2022-10-18T22:56:10.538Z,82.70
2022-10-18T22:58:37.373Z,82.66
2022-10-18T23:01:08.999Z,82.71
2022-10-18T23:03:37.277Z,82.64
2022-10-18T23:06:05.513Z,82.68
2022-10-18T23:08:32.850Z,82.69
2022-10-18T23:11:00.491Z,82.72
2022-10-18T23:13:27.968Z,82.68
2022-10-18T23:16:04.450Z,82.77
2022-10-18T23:18:32.772Z,82.75
2022-10-18T23:21:02.708Z,82.84
2022-10-18T23:23:34.926Z,82.89
2022-10-18T23:26:04.041Z,82.99
2022-10-18T23:28:34.809Z,82.80
2022-10-18T23:31:07.714Z,82.92
2022-10-18T23:33:35.066Z,82.87
2022-10-18T23:36:02.225Z,82.57
2022-10-18T23:38:30.935Z,82.66
2022-10-18T23:40:58.538Z,82.42
2022-10-18T23:43:25.628Z,82.64
2022-10-18T23:45:52.405Z,82.46
2022-10-18T23:48:19.139Z,82.60
2022-10-18T23:50:46.056Z,82.64
2022-10-18T23:53:12.852Z,82.41
2022-10-18T23:55:39.588Z,82.69
2022-10-18T23:58:06.341Z,82.66
